sensor_id;sensor_type;location;lat;lon;timestamp;temperature;humidity
12384;DHT22;6256;63.808;20.336;2022-12-20T00:01:29;-6.20;99.90
12384;DHT22;6256;63.808;20.336;2022-12-20T00:03:57;-6.20;99.90
12384;DHT22;6256;63.808;20.336;2022-12-20T00:06:24;-6.10;99.90
12384;DHT22;6256;63.808;20.336;2022-12-20T00:08:58;-6.10;99.90
12384;DHT22;6256;63.808;20.336;2022-12-20T00:11:24;-6.10;99.90
12384;DHT22;6256;63.808;20.336;2022-12-20T00:13:51;-6.00;99.90
12384;DHT22;6256;63.808;20.336;2022-12-20T00:16:22;-6.00;99.90
12384;DHT22;6256;63.808;20.336;2022-12-20T00:18:51;-6.00;99.90
12384;DHT22;6256;63.808;20.336;2022-12-20T00:21:17;-6.00;99.90
12384;DHT22;6256;63.808;20.336;2022-12-20T00:23:42;-5.90;99.90
12384;DHT22;6256;63.808;20.336;2022-12-20T00:26:10;-5.90;99.90
12384;DHT22;6256;63.808;20.336;2022-12-20T00:28:37;-5.80;99.90
12384;DHT22;6256;63.808;20.336;2022-12-20T00:31:04;-5.80;99.90
12384;DHT22;6256;63.808;20.336;2022-12-20T00:33:31;-5.70;99.90
12384;DHT22;6256;63.808;20.336;2022-12-20T00:35:57;-5.70;99.90
12384;DHT22;6256;63.808;20.336;2022-12-20T00:38:23;-5.70;99.90
12384;DHT22;6256;63.808;20.336;2022-12-20T00:41:23;-5.60;99.90
12384;DHT22;6256;63.808;20.336;2022-12-20T00:43:49;-5.60;99.90
12384;DHT22;6256;63.808;20.336;2022-12-20T00:46:17;-5.50;99.90
12384;DHT22;6256;63.808;20.336;2022-12-20T00:48:43;-5.50;99.90
12384;DHT22;6256;63.808;20.336;2022-12-20T00:51:16;-5.40;99.90
12384;DHT22;6256;63.808;20.336;2022-12-20T00:53:42;-5.40;99.90
12384;DHT22;6256;63.808;20.336;2022-12-20T00:56:08;-5.30;99.90
12384;DHT22;6256;63.808;20.336;2022-12-20T00:58:37;-5.30;99.90
12384;DHT22;6256;63.808;20.336;2022-12-20T01:01:04;-5.20;99.90
12384;DHT22;6256;63.808;20.336;2022-12-20T01:03:30;-5.20;99.90
12384;DHT22;6256;63.808;20.336;2022-12-20T01:05:58;-5.20;99.90
12384;DHT22;6256;63.808;20.336;2022-12-20T01:08:26;-5.10;99.90
12384;DHT22;6256;63.808;20.336;2022-12-20T01:11:00;-5.10;99.90
12384;DHT22;6256;63.808;20.336;2022-12-20T01:13:26;-5.10;99.90
12384;DHT22;6256;63.808;20.336;2022-12-20T01:15:52;-5.10;99.90
12384;DHT22;6256;63.808;20.336;2022-12-20T01:18:18;-5.00;99.90
12384;DHT22;6256;63.808;20.336;2022-12-20T01:20:43;-5.00;99.90
12384;DHT22;6256;63.808;20.336;2022-12-20T01:23:09;-5.00;99.90
12384;DHT22;6256;63.808;20.336;2022-12-20T01:25:35;-4.90;99.90
12384;DHT22;6256;63.808;20.336;2022-12-20T01:28:00;-4.90;99.90
12384;DHT22;6256;63.808;20.336;2022-12-20T01:30:26;-4.80;99.90
12384;DHT22;6256;63.808;20.336;2022-12-20T01:32:51;-4.80;99.90
12384;DHT22;6256;63.808;20.336;2022-12-20T01:35:17;-4.80;99.90
12384;DHT22;6256;63.808;20.336;2022-12-20T01:37:43;-4.70;99.90
12384;DHT22;6256;63.808;20.336;2022-12-20T01:40:09;-4.70;99.90
12384;DHT22;6256;63.808;20.336;2022-12-20T01:42:35;-4.70;99.90
12384;DHT22;6256;63.808;20.336;2022-12-20T01:45:01;-4.60;99.90
12384;DHT22;6256;63.808;20.336;2022-12-20T01:47:30;-4.60;99.90
12384;DHT22;6256;63.808;20.336;2022-12-20T01:50:00;-4.50;99.90
12384;DHT22;6256;63.808;20.336;2022-12-20T01:52:28;-4.50;99.90
12384;DHT22;6256;63.808;20.336;2022-12-20T01:55:09;-4.40;99.90
12384;DHT22;6256;63.808;20.336;2022-12-20T01:57:50;-4.40;99.90
12384;DHT22;6256;63.808;20.336;2022-12-20T02:00:19;-4.40;99.90
12384;DHT22;6256;63.808;20.336;2022-12-20T02:02:47;-4.30;99.90
12384;DHT22;6256;63.808;20.336;2022-12-20T02:05:14;-4.30;99.90
12384;DHT22;6256;63.808;20.336;2022-12-20T02:07:42;-4.20;99.90
12384;DHT22;6256;63.808;20.336;2022-12-20T02:10:10;-4.20;99.90
12384;DHT22;6256;63.808;20.336;2022-12-20T02:12:42;-4.10;99.90
12384;DHT22;6256;63.808;20.336;2022-12-20T02:18:18;-4.10;99.90
12384;DHT22;6256;63.808;20.336;2022-12-20T02:28:44;-3.90;99.90
12384;DHT22;6256;63.808;20.336;2022-12-20T02:31:14;-3.90;99.90
12384;DHT22;6256;63.808;20.336;2022-12-20T02:33:46;-3.90;99.90
12384;DHT22;6256;63.808;20.336;2022-12-20T02:36:16;-4.00;99.90
12384;DHT22;6256;63.808;20.336;2022-12-20T02:38:42;-4.00;99.90
12384;DHT22;6256;63.808;20.336;2022-12-20T02:41:20;-3.90;99.90
12384;DHT22;6256;63.808;20.336;2022-12-20T02:43:50;-3.90;99.90
12384;DHT22;6256;63.808;20.336;2022-12-20T02:46:37;-4.00;99.90
12384;DHT22;6256;63.808;20.336;2022-12-20T02:49:09;-4.00;99.90
12384;DHT22;6256;63.808;20.336;2022-12-20T02:51:36;-4.00;99.90
12384;DHT22;6256;63.808;20.336;2022-12-20T02:54:03;-4.00;99.90
12384;DHT22;6256;63.808;20.336;2022-12-20T02:56:43;-4.00;99.90
12384;DHT22;6256;63.808;20.336;2022-12-20T02:59:28;-3.90;99.90
12384;DHT22;6256;63.808;20.336;2022-12-20T03:01:56;-3.90;99.90
12384;DHT22;6256;63.808;20.336;2022-12-20T03:04:26;-3.90;99.90
12384;DHT22;6256;63.808;20.336;2022-12-20T03:07:00;-3.90;99.90
12384;DHT22;6256;63.808;20.336;2022-12-20T03:09:27;-3.80;99.90
12384;DHT22;6256;63.808;20.336;2022-12-20T03:11:54;-3.80;99.90
12384;DHT22;6256;63.808;20.336;2022-12-20T03:14:21;-3.80;99.90
12384;DHT22;6256;63.808;20.336;2022-12-20T03:16:47;-3.80;99.90
12384;DHT22;6256;63.808;20.336;2022-12-20T03:19:12;-3.70;99.90
12384;DHT22;6256;63.808;20.336;2022-12-20T03:21:38;-3.70;99.90
12384;DHT22;6256;63.808;20.336;2022-12-20T03:24:04;-3.70;99.90
12384;DHT22;6256;63.808;20.336;2022-12-20T03:26:30;-3.70;99.90
12384;DHT22;6256;63.808;20.336;2022-12-20T03:28:56;-3.70;99.90
12384;DHT22;6256;63.808;20.336;2022-12-20T03:31:21;-3.60;99.90
12384;DHT22;6256;63.808;20.336;2022-12-20T03:33:47;-3.60;99.90
12384;DHT22;6256;63.808;20.336;2022-12-20T03:36:13;-3.50;99.90
12384;DHT22;6256;63.808;20.336;2022-12-20T03:38:39;-3.50;99.90
12384;DHT22;6256;63.808;20.336;2022-12-20T03:41:05;-3.50;99.90
12384;DHT22;6256;63.808;20.336;2022-12-20T03:43:31;-3.40;99.90
12384;DHT22;6256;63.808;20.336;2022-12-20T03:45:56;-3.40;99.90
12384;DHT22;6256;63.808;20.336;2022-12-20T03:48:22;-3.30;99.90
12384;DHT22;6256;63.808;20.336;2022-12-20T03:50:47;-3.30;99.90
12384;DHT22;6256;63.808;20.336;2022-12-20T03:53:13;-3.30;99.90
12384;DHT22;6256;63.808;20.336;2022-12-20T03:55:39;-3.20;99.90
12384;DHT22;6256;63.808;20.336;2022-12-20T03:58:04;-3.20;99.90
12384;DHT22;6256;63.808;20.336;2022-12-20T04:00:30;-3.20;99.90
12384;DHT22;6256;63.808;20.336;2022-12-20T04:02:56;-3.20;99.90
12384;DHT22;6256;63.808;20.336;2022-12-20T04:05:21;-3.20;99.90
12384;DHT22;6256;63.808;20.336;2022-12-20T04:07:47;-3.20;99.90
12384;DHT22;6256;63.808;20.336;2022-12-20T04:10:13;-3.10;99.90
12384;DHT22;6256;63.808;20.336;2022-12-20T04:12:38;-3.10;99.90
12384;DHT22;6256;63.808;20.336;2022-12-20T04:15:04;-3.10;99.90
12384;DHT22;6256;63.808;20.336;2022-12-20T04:17:30;-3.10;99.90
12384;DHT22;6256;63.808;20.336;2022-12-20T04:19:56;-3.10;99.90
12384;DHT22;6256;63.808;20.336;2022-12-20T04:22:21;-3.10;99.90
12384;DHT22;6256;63.808;20.336;2022-12-20T04:24:47;-3.10;99.90
12384;DHT22;6256;63.808;20.336;2022-12-20T04:27:13;-3.00;99.90
12384;DHT22;6256;63.808;20.336;2022-12-20T04:29:39;-3.00;99.90
12384;DHT22;6256;63.808;20.336;2022-12-20T04:32:05;-3.00;99.90
12384;DHT22;6256;63.808;20.336;2022-12-20T04:34:30;-3.00;99.90
12384;DHT22;6256;63.808;20.336;2022-12-20T04:36:56;-2.90;99.90
12384;DHT22;6256;63.808;20.336;2022-12-20T04:39:21;-2.90;99.90
12384;DHT22;6256;63.808;20.336;2022-12-20T04:41:47;-2.90;99.90
12384;DHT22;6256;63.808;20.336;2022-12-20T04:44:13;-2.90;99.90
12384;DHT22;6256;63.808;20.336;2022-12-20T04:46:38;-2.90;99.90
12384;DHT22;6256;63.808;20.336;2022-12-20T04:49:04;-2.90;99.90
12384;DHT22;6256;63.808;20.336;2022-12-20T04:51:30;-2.80;99.90
12384;DHT22;6256;63.808;20.336;2022-12-20T04:53:56;-2.80;99.90
12384;DHT22;6256;63.808;20.336;2022-12-20T04:56:26;-2.80;99.90
12384;DHT22;6256;63.808;20.336;2022-12-20T04:58:53;-2.70;99.90
12384;DHT22;6256;63.808;20.336;2022-12-20T05:01:20;-2.70;99.90
12384;DHT22;6256;63.808;20.336;2022-12-20T05:03:46;-2.70;99.90
12384;DHT22;6256;63.808;20.336;2022-12-20T05:06:12;-2.70;99.90
12384;DHT22;6256;63.808;20.336;2022-12-20T05:08:38;-2.60;99.90
12384;DHT22;6256;63.808;20.336;2022-12-20T05:11:04;-2.60;99.90
12384;DHT22;6256;63.808;20.336;2022-12-20T05:13:31;-2.50;99.90
12384;DHT22;6256;63.808;20.336;2022-12-20T05:15:57;-2.50;99.90
12384;DHT22;6256;63.808;20.336;2022-12-20T05:18:24;-2.50;99.90
12384;DHT22;6256;63.808;20.336;2022-12-20T05:20:50;-2.50;99.90
12384;DHT22;6256;63.808;20.336;2022-12-20T05:23:38;-2.40;99.90
12384;DHT22;6256;63.808;20.336;2022-12-20T05:26:30;-2.40;99.90
12384;DHT22;6256;63.808;20.336;2022-12-20T05:28:56;-2.30;99.90
12384;DHT22;6256;63.808;20.336;2022-12-20T05:31:22;-2.30;99.90
12384;DHT22;6256;63.808;20.336;2022-12-20T05:33:48;-2.20;99.90
12384;DHT22;6256;63.808;20.336;2022-12-20T05:36:13;-2.20;99.90
12384;DHT22;6256;63.808;20.336;2022-12-20T05:38:39;-2.10;99.90
12384;DHT22;6256;63.808;20.336;2022-12-20T05:41:05;-2.10;99.90
12384;DHT22;6256;63.808;20.336;2022-12-20T05:43:31;-2.10;99.90
12384;DHT22;6256;63.808;20.336;2022-12-20T05:45:57;-2.10;99.90
12384;DHT22;6256;63.808;20.336;2022-12-20T05:48:22;-2.00;99.90
12384;DHT22;6256;63.808;20.336;2022-12-20T05:50:48;-2.00;99.90
12384;DHT22;6256;63.808;20.336;2022-12-20T05:53:18;-2.00;99.90
12384;DHT22;6256;63.808;20.336;2022-12-20T05:55:46;-1.90;99.90
12384;DHT22;6256;63.808;20.336;2022-12-20T05:58:12;-1.90;99.90
12384;DHT22;6256;63.808;20.336;2022-12-20T06:00:39;-1.80;99.90
12384;DHT22;6256;63.808;20.336;2022-12-20T06:03:06;-1.80;99.90
12384;DHT22;6256;63.808;20.336;2022-12-20T06:05:32;-1.80;99.90
12384;DHT22;6256;63.808;20.336;2022-12-20T06:07:58;-1.70;99.90
12384;DHT22;6256;63.808;20.336;2022-12-20T06:10:23;-1.60;99.90
12384;DHT22;6256;63.808;20.336;2022-12-20T06:12:49;-1.60;99.90
12384;DHT22;6256;63.808;20.336;2022-12-20T06:15:15;-1.50;99.90
12384;DHT22;6256;63.808;20.336;2022-12-20T06:17:41;-1.40;99.90
12384;DHT22;6256;63.808;20.336;2022-12-20T06:20:07;-1.40;99.90
12384;DHT22;6256;63.808;20.336;2022-12-20T06:22:33;-1.30;99.90
12384;DHT22;6256;63.808;20.336;2022-12-20T06:24:59;-1.20;99.90
12384;DHT22;6256;63.808;20.336;2022-12-20T06:27:25;-1.20;99.90
12384;DHT22;6256;63.808;20.336;2022-12-20T06:29:50;-1.10;99.90
12384;DHT22;6256;63.808;20.336;2022-12-20T06:32:19;-1.00;99.90
12384;DHT22;6256;63.808;20.336;2022-12-20T06:34:45;-1.00;99.90
12384;DHT22;6256;63.808;20.336;2022-12-20T06:37:11;-1.00;99.90
12384;DHT22;6256;63.808;20.336;2022-12-20T06:39:37;-0.90;99.90
12384;DHT22;6256;63.808;20.336;2022-12-20T06:42:03;-0.90;99.90
12384;DHT22;6256;63.808;20.336;2022-12-20T06:44:29;-0.90;99.90
12384;DHT22;6256;63.808;20.336;2022-12-20T06:46:54;-0.80;99.90
12384;DHT22;6256;63.808;20.336;2022-12-20T06:49:20;-0.70;99.90
12384;DHT22;6256;63.808;20.336;2022-12-20T06:51:47;-0.70;99.90
12384;DHT22;6256;63.808;20.336;2022-12-20T06:54:12;-0.70;99.90
12384;DHT22;6256;63.808;20.336;2022-12-20T06:56:38;-0.60;99.90
12384;DHT22;6256;63.808;20.336;2022-12-20T06:59:04;-0.60;99.90
12384;DHT22;6256;63.808;20.336;2022-12-20T07:01:30;-0.60;99.90
12384;DHT22;6256;63.808;20.336;2022-12-20T07:03:56;-0.60;99.90
12384;DHT22;6256;63.808;20.336;2022-12-20T07:06:22;-0.60;99.90
12384;DHT22;6256;63.808;20.336;2022-12-20T07:08:47;-0.50;99.90
12384;DHT22;6256;63.808;20.336;2022-12-20T07:11:13;-0.50;99.90
12384;DHT22;6256;63.808;20.336;2022-12-20T07:13:39;-0.40;99.90
12384;DHT22;6256;63.808;20.336;2022-12-20T07:16:05;-0.40;99.90
12384;DHT22;6256;63.808;20.336;2022-12-20T07:18:31;-0.40;99.90
12384;DHT22;6256;63.808;20.336;2022-12-20T07:21:04;-0.40;99.90
12384;DHT22;6256;63.808;20.336;2022-12-20T07:23:31;-0.30;99.90
12384;DHT22;6256;63.808;20.336;2022-12-20T07:25:59;-0.30;99.90
12384;DHT22;6256;63.808;20.336;2022-12-20T07:28:26;-0.30;99.90
12384;DHT22;6256;63.808;20.336;2022-12-20T07:30:52;-0.30;99.90
12384;DHT22;6256;63.808;20.336;2022-12-20T07:33:17;-0.30;99.90
12384;DHT22;6256;63.808;20.336;2022-12-20T07:35:43;-0.30;99.90
12384;DHT22;6256;63.808;20.336;2022-12-20T07:38:11;-0.20;99.90
12384;DHT22;6256;63.808;20.336;2022-12-20T07:40:42;-0.20;99.90
12384;DHT22;6256;63.808;20.336;2022-12-20T07:43:08;-0.20;99.90
12384;DHT22;6256;63.808;20.336;2022-12-20T07:45:34;-0.10;99.90
12384;DHT22;6256;63.808;20.336;2022-12-20T07:48:00;-0.10;99.90
12384;DHT22;6256;63.808;20.336;2022-12-20T07:50:27;-0.10;99.90
12384;DHT22;6256;63.808;20.336;2022-12-20T07:52:53;0.00;99.90
12384;DHT22;6256;63.808;20.336;2022-12-20T07:55:19;0.00;99.90
12384;DHT22;6256;63.808;20.336;2022-12-20T07:57:53;0.00;99.90
12384;DHT22;6256;63.808;20.336;2022-12-20T08:00:21;0.00;99.90
12384;DHT22;6256;63.808;20.336;2022-12-20T08:02:54;0.00;99.90
12384;DHT22;6256;63.808;20.336;2022-12-20T08:05:21;0.00;99.90
12384;DHT22;6256;63.808;20.336;2022-12-20T08:07:47;0.00;99.90
12384;DHT22;6256;63.808;20.336;2022-12-20T08:10:14;0.10;99.90
12384;DHT22;6256;63.808;20.336;2022-12-20T08:12:42;0.10;99.90
12384;DHT22;6256;63.808;20.336;2022-12-20T08:15:10;0.10;99.90
12384;DHT22;6256;63.808;20.336;2022-12-20T08:17:35;0.10;99.90
12384;DHT22;6256;63.808;20.336;2022-12-20T08:20:01;0.10;99.90
12384;DHT22;6256;63.808;20.336;2022-12-20T08:22:27;0.10;99.90
12384;DHT22;6256;63.808;20.336;2022-12-20T08:24:53;0.10;99.90
12384;DHT22;6256;63.808;20.336;2022-12-20T08:27:19;0.10;99.90
12384;DHT22;6256;63.808;20.336;2022-12-20T08:29:45;0.20;99.90
12384;DHT22;6256;63.808;20.336;2022-12-20T08:32:11;0.20;99.90
12384;DHT22;6256;63.808;20.336;2022-12-20T08:34:38;0.20;99.90
12384;DHT22;6256;63.808;20.336;2022-12-20T08:37:04;0.20;99.90
12384;DHT22;6256;63.808;20.336;2022-12-20T08:39:30;0.20;99.90
12384;DHT22;6256;63.808;20.336;2022-12-20T08:41:55;0.20;99.90
12384;DHT22;6256;63.808;20.336;2022-12-20T08:44:21;0.20;99.90
12384;DHT22;6256;63.808;20.336;2022-12-20T08:46:47;0.20;99.90
12384;DHT22;6256;63.808;20.336;2022-12-20T08:49:12;0.30;99.90
12384;DHT22;6256;63.808;20.336;2022-12-20T08:51:38;0.30;99.90
12384;DHT22;6256;63.808;20.336;2022-12-20T08:54:04;0.30;99.90
12384;DHT22;6256;63.808;20.336;2022-12-20T08:56:30;0.30;99.90
12384;DHT22;6256;63.808;20.336;2022-12-20T08:58:55;0.30;99.90
12384;DHT22;6256;63.808;20.336;2022-12-20T09:01:22;0.30;99.90
12384;DHT22;6256;63.808;20.336;2022-12-20T09:03:48;0.30;99.90
12384;DHT22;6256;63.808;20.336;2022-12-20T09:06:17;0.30;99.90
12384;DHT22;6256;63.808;20.336;2022-12-20T09:08:43;0.40;99.90
12384;DHT22;6256;63.808;20.336;2022-12-20T09:11:19;0.40;99.90
12384;DHT22;6256;63.808;20.336;2022-12-20T09:13:50;0.40;99.90
12384;DHT22;6256;63.808;20.336;2022-12-20T09:16:19;0.40;99.90
12384;DHT22;6256;63.808;20.336;2022-12-20T09:18:52;0.40;99.90
12384;DHT22;6256;63.808;20.336;2022-12-20T09:21:18;0.40;99.90
12384;DHT22;6256;63.808;20.336;2022-12-20T09:23:45;0.40;99.90
12384;DHT22;6256;63.808;20.336;2022-12-20T09:26:15;0.40;99.90
12384;DHT22;6256;63.808;20.336;2022-12-20T09:28:41;0.50;99.90
12384;DHT22;6256;63.808;20.336;2022-12-20T09:31:11;0.50;99.90
12384;DHT22;6256;63.808;20.336;2022-12-20T09:33:37;0.50;99.90
12384;DHT22;6256;63.808;20.336;2022-12-20T09:36:04;0.50;99.90
12384;DHT22;6256;63.808;20.336;2022-12-20T09:38:30;0.50;99.90
12384;DHT22;6256;63.808;20.336;2022-12-20T09:41:07;0.50;99.90
12384;DHT22;6256;63.808;20.336;2022-12-20T09:43:39;0.50;99.90
12384;DHT22;6256;63.808;20.336;2022-12-20T09:46:06;0.50;99.90
12384;DHT22;6256;63.808;20.336;2022-12-20T09:48:34;0.60;99.90
12384;DHT22;6256;63.808;20.336;2022-12-20T09:54:15;0.60;99.90
12384;DHT22;6256;63.808;20.336;2022-12-20T09:56:53;0.60;99.90
12384;DHT22;6256;63.808;20.336;2022-12-20T09:59:20;0.60;99.90
12384;DHT22;6256;63.808;20.336;2022-12-20T10:01:48;0.60;99.90
12384;DHT22;6256;63.808;20.336;2022-12-20T10:04:24;0.60;99.90
12384;DHT22;6256;63.808;20.336;2022-12-20T10:12:13;0.60;99.90
12384;DHT22;6256;63.808;20.336;2022-12-20T10:14:52;0.60;99.90
12384;DHT22;6256;63.808;20.336;2022-12-20T10:25:31;0.70;99.90
12384;DHT22;6256;63.808;20.336;2022-12-20T10:28:00;0.70;99.90
12384;DHT22;6256;63.808;20.336;2022-12-20T10:30:28;0.70;99.90
12384;DHT22;6256;63.808;20.336;2022-12-20T10:32:56;0.70;99.90
12384;DHT22;6256;63.808;20.336;2022-12-20T10:35:32;0.70;99.90
12384;DHT22;6256;63.808;20.336;2022-12-20T10:38:03;0.70;99.90
12384;DHT22;6256;63.808;20.336;2022-12-20T10:40:39;0.70;99.90
12384;DHT22;6256;63.808;20.336;2022-12-20T10:43:13;0.70;99.90
12384;DHT22;6256;63.808;20.336;2022-12-20T10:45:41;0.70;99.90
12384;DHT22;6256;63.808;20.336;2022-12-20T10:48:33;0.70;99.90
12384;DHT22;6256;63.808;20.336;2022-12-20T10:53:54;0.70;99.90
12384;DHT22;6256;63.808;20.336;2022-12-20T11:01:47;0.70;99.90
12384;DHT22;6256;63.808;20.336;2022-12-20T11:04:33;0.80;99.90
12384;DHT22;6256;63.808;20.336;2022-12-20T11:07:02;0.70;99.90
12384;DHT22;6256;63.808;20.336;2022-12-20T11:14:23;0.80;99.90
12384;DHT22;6256;63.808;20.336;2022-12-20T11:16:50;0.80;99.90
12384;DHT22;6256;63.808;20.336;2022-12-20T11:22:05;0.80;99.90
12384;DHT22;6256;63.808;20.336;2022-12-20T11:27:42;0.90;99.90
12384;DHT22;6256;63.808;20.336;2022-12-20T11:30:26;0.90;99.90
12384;DHT22;6256;63.808;20.336;2022-12-20T11:33:00;0.90;99.90
12384;DHT22;6256;63.808;20.336;2022-12-20T11:38:21;0.90;99.90
12384;DHT22;6256;63.808;20.336;2022-12-20T11:43:46;0.90;99.90
12384;DHT22;6256;63.808;20.336;2022-12-20T11:54:34;0.90;99.90
12384;DHT22;6256;63.808;20.336;2022-12-20T11:57:13;0.90;99.90
12384;DHT22;6256;63.808;20.336;2022-12-20T11:59:51;1.00;99.90
12384;DHT22;6256;63.808;20.336;2022-12-20T12:05:14;1.00;99.90
12384;DHT22;6256;63.808;20.336;2022-12-20T12:07:48;0.90;99.90
12384;DHT22;6256;63.808;20.336;2022-12-20T12:10:18;1.00;99.90
12384;DHT22;6256;63.808;20.336;2022-12-20T12:12:51;1.00;99.90
12384;DHT22;6256;63.808;20.336;2022-12-20T12:15:33;1.00;99.90
12384;DHT22;6256;63.808;20.336;2022-12-20T12:18:21;0.90;99.90
12384;DHT22;6256;63.808;20.336;2022-12-20T12:23:31;1.00;99.90
12384;DHT22;6256;63.808;20.336;2022-12-20T12:26:04;0.90;99.90
12384;DHT22;6256;63.808;20.336;2022-12-20T12:28:30;0.90;99.90
12384;DHT22;6256;63.808;20.336;2022-12-20T12:31:08;0.90;99.90
12384;DHT22;6256;63.808;20.336;2022-12-20T12:37:06;1.00;99.90
12384;DHT22;6256;63.808;20.336;2022-12-20T12:47:49;1.10;99.90
12384;DHT22;6256;63.808;20.336;2022-12-20T12:50:49;1.10;99.90
12384;DHT22;6256;63.808;20.336;2022-12-20T12:53:23;1.10;99.90
12384;DHT22;6256;63.808;20.336;2022-12-20T12:55:52;1.10;99.90
12384;DHT22;6256;63.808;20.336;2022-12-20T13:00:51;1.20;99.90
12384;DHT22;6256;63.808;20.336;2022-12-20T13:11:47;1.30;99.90
12384;DHT22;6256;63.808;20.336;2022-12-20T13:19:36;1.40;99.90
12384;DHT22;6256;63.808;20.336;2022-12-20T13:27:20;1.40;99.90
12384;DHT22;6256;63.808;20.336;2022-12-20T13:30:22;1.40;99.90
12384;DHT22;6256;63.808;20.336;2022-12-20T13:38:04;1.40;99.90
12384;DHT22;6256;63.808;20.336;2022-12-20T13:40:55;1.50;99.90
12384;DHT22;6256;63.808;20.336;2022-12-20T13:51:17;1.50;99.90
12384;DHT22;6256;63.808;20.336;2022-12-20T13:54:05;1.40;99.90
12384;DHT22;6256;63.808;20.336;2022-12-20T13:56:48;1.40;99.90
12384;DHT22;6256;63.808;20.336;2022-12-20T13:59:26;1.40;99.90
12384;DHT22;6256;63.808;20.336;2022-12-20T14:01:55;1.40;99.90
12384;DHT22;6256;63.808;20.336;2022-12-20T14:04:27;1.50;99.90
12384;DHT22;6256;63.808;20.336;2022-12-20T14:07:03;1.50;99.90
12384;DHT22;6256;63.808;20.336;2022-12-20T14:09:36;1.50;99.90
12384;DHT22;6256;63.808;20.336;2022-12-20T14:12:11;1.50;99.90
12384;DHT22;6256;63.808;20.336;2022-12-20T14:14:48;1.50;99.90
12384;DHT22;6256;63.808;20.336;2022-12-20T14:20:14;1.60;99.90
12384;DHT22;6256;63.808;20.336;2022-12-20T14:22:57;1.60;99.90
12384;DHT22;6256;63.808;20.336;2022-12-20T14:25:37;1.60;99.90
12384;DHT22;6256;63.808;20.336;2022-12-20T14:28:36;1.60;99.90
12384;DHT22;6256;63.808;20.336;2022-12-20T14:31:01;1.60;99.90
12384;DHT22;6256;63.808;20.336;2022-12-20T14:33:37;1.60;99.90
12384;DHT22;6256;63.808;20.336;2022-12-20T14:38:44;1.70;99.90
12384;DHT22;6256;63.808;20.336;2022-12-20T14:43:55;1.70;99.90
12384;DHT22;6256;63.808;20.336;2022-12-20T14:46:21;1.70;99.90
12384;DHT22;6256;63.808;20.336;2022-12-20T14:49:06;1.70;99.90
12384;DHT22;6256;63.808;20.336;2022-12-20T14:51:35;1.70;99.90
12384;DHT22;6256;63.808;20.336;2022-12-20T14:54:01;1.60;99.90
12384;DHT22;6256;63.808;20.336;2022-12-20T14:56:27;1.70;99.90
12384;DHT22;6256;63.808;20.336;2022-12-20T14:59:15;1.70;99.90
12384;DHT22;6256;63.808;20.336;2022-12-20T15:01:41;1.70;99.90
12384;DHT22;6256;63.808;20.336;2022-12-20T15:06:55;1.70;99.90
12384;DHT22;6256;63.808;20.336;2022-12-20T15:09:21;1.70;99.90
12384;DHT22;6256;63.808;20.336;2022-12-20T15:11:47;1.70;99.90
12384;DHT22;6256;63.808;20.336;2022-12-20T15:14:34;1.70;99.90
12384;DHT22;6256;63.808;20.336;2022-12-20T15:17:12;1.70;99.90
12384;DHT22;6256;63.808;20.336;2022-12-20T15:19:39;1.70;99.90
12384;DHT22;6256;63.808;20.336;2022-12-20T15:22:05;1.80;99.90
12384;DHT22;6256;63.808;20.336;2022-12-20T15:24:31;1.70;99.90
12384;DHT22;6256;63.808;20.336;2022-12-20T15:26:57;1.70;99.90
12384;DHT22;6256;63.808;20.336;2022-12-20T15:29:24;1.70;99.90
12384;DHT22;6256;63.808;20.336;2022-12-20T15:31:52;1.80;99.90
12384;DHT22;6256;63.808;20.336;2022-12-20T15:34:25;1.80;99.90
12384;DHT22;6256;63.808;20.336;2022-12-20T15:36:52;1.70;99.90
12384;DHT22;6256;63.808;20.336;2022-12-20T15:39:18;1.70;99.90
12384;DHT22;6256;63.808;20.336;2022-12-20T15:41:47;1.70;99.90
12384;DHT22;6256;63.808;20.336;2022-12-20T15:46:43;1.60;99.90
12384;DHT22;6256;63.808;20.336;2022-12-20T15:49:20;1.60;99.90
12384;DHT22;6256;63.808;20.336;2022-12-20T15:51:47;1.60;99.90
12384;DHT22;6256;63.808;20.336;2022-12-20T15:54:34;1.60;99.90
12384;DHT22;6256;63.808;20.336;2022-12-20T15:57:02;1.50;99.90
12384;DHT22;6256;63.808;20.336;2022-12-20T15:59:30;1.50;99.90
12384;DHT22;6256;63.808;20.336;2022-12-20T16:01:55;1.50;99.90
12384;DHT22;6256;63.808;20.336;2022-12-20T16:04:22;1.50;99.90
12384;DHT22;6256;63.808;20.336;2022-12-20T16:06:49;1.50;99.90
12384;DHT22;6256;63.808;20.336;2022-12-20T16:09:18;1.50;99.90
12384;DHT22;6256;63.808;20.336;2022-12-20T16:11:45;1.50;99.90
12384;DHT22;6256;63.808;20.336;2022-12-20T16:14:19;1.50;99.90
12384;DHT22;6256;63.808;20.336;2022-12-20T16:16:46;1.50;99.90
12384;DHT22;6256;63.808;20.336;2022-12-20T16:19:14;1.50;99.90
12384;DHT22;6256;63.808;20.336;2022-12-20T16:21:44;1.50;99.90
12384;DHT22;6256;63.808;20.336;2022-12-20T16:24:18;1.50;99.90
12384;DHT22;6256;63.808;20.336;2022-12-20T16:26:45;1.50;99.90
12384;DHT22;6256;63.808;20.336;2022-12-20T16:29:13;1.50;99.90
12384;DHT22;6256;63.808;20.336;2022-12-20T16:31:40;1.50;99.90
12384;DHT22;6256;63.808;20.336;2022-12-20T16:34:12;1.50;99.90
12384;DHT22;6256;63.808;20.336;2022-12-20T16:36:38;1.60;99.90
12384;DHT22;6256;63.808;20.336;2022-12-20T16:39:04;1.50;99.90
12384;DHT22;6256;63.808;20.336;2022-12-20T16:41:36;1.50;99.90
12384;DHT22;6256;63.808;20.336;2022-12-20T16:44:02;1.50;99.90
12384;DHT22;6256;63.808;20.336;2022-12-20T16:46:30;1.50;99.90
12384;DHT22;6256;63.808;20.336;2022-12-20T16:48:58;1.60;99.90
12384;DHT22;6256;63.808;20.336;2022-12-20T16:51:31;1.60;99.90
12384;DHT22;6256;63.808;20.336;2022-12-20T16:54:20;1.60;99.90
12384;DHT22;6256;63.808;20.336;2022-12-20T16:56:50;1.60;99.90
12384;DHT22;6256;63.808;20.336;2022-12-20T16:59:20;1.50;99.90
12384;DHT22;6256;63.808;20.336;2022-12-20T17:01:49;1.50;99.90
12384;DHT22;6256;63.808;20.336;2022-12-20T17:04:17;1.60;99.90
12384;DHT22;6256;63.808;20.336;2022-12-20T17:06:43;1.50;99.90
12384;DHT22;6256;63.808;20.336;2022-12-20T17:09:09;1.50;99.90
12384;DHT22;6256;63.808;20.336;2022-12-20T17:11:35;1.50;99.90
12384;DHT22;6256;63.808;20.336;2022-12-20T17:14:02;1.50;99.90
12384;DHT22;6256;63.808;20.336;2022-12-20T17:16:28;1.50;99.90
12384;DHT22;6256;63.808;20.336;2022-12-20T17:18:55;1.50;99.90
12384;DHT22;6256;63.808;20.336;2022-12-20T17:21:41;1.50;99.90
12384;DHT22;6256;63.808;20.336;2022-12-20T17:24:17;1.50;99.90
12384;DHT22;6256;63.808;20.336;2022-12-20T17:26:43;1.60;99.90
12384;DHT22;6256;63.808;20.336;2022-12-20T17:29:09;1.60;99.90
12384;DHT22;6256;63.808;20.336;2022-12-20T17:31:37;1.50;99.90
12384;DHT22;6256;63.808;20.336;2022-12-20T17:34:18;1.60;99.90
12384;DHT22;6256;63.808;20.336;2022-12-20T17:36:45;1.60;99.90
12384;DHT22;6256;63.808;20.336;2022-12-20T17:39:11;1.60;99.90
12384;DHT22;6256;63.808;20.336;2022-12-20T17:41:37;1.60;99.90
12384;DHT22;6256;63.808;20.336;2022-12-20T17:44:03;1.60;99.90
12384;DHT22;6256;63.808;20.336;2022-12-20T17:46:30;1.60;99.90
12384;DHT22;6256;63.808;20.336;2022-12-20T17:48:56;1.60;99.90
12384;DHT22;6256;63.808;20.336;2022-12-20T17:51:28;1.60;99.90
12384;DHT22;6256;63.808;20.336;2022-12-20T17:53:56;1.60;99.90
12384;DHT22;6256;63.808;20.336;2022-12-20T17:56:24;1.60;99.90